Terminal Aerodrome Forecast
Issued by NWS

Current Version | Previous Version | Text Only | Print | Product List | Glossary On
Versions: 1 2 3 4 5 6 7 8 9 10 11 12 13 14 15 16
547
FTUS46 KMTR 080142 AAB
TAFSJC
TAF AMD
KSJC 080142Z 0802/0824 28006KT P6SM SKC
     FM080700 VRB03KT P6SM SKC
     FM082100 32007KT P6SM SKC=

USA.gov is the U.S. government's official web portal to all federal, state and local government web resources and services.